sensor_id;sensor_type;location;lat;lon;timestamp;temperature;humidity
13446;DHT22;6795;51.232;3.764;2023-07-24T08:50:23;21.20;99.90
13446;DHT22;6795;51.232;3.764;2023-07-24T08:53:35;21.20;99.90
13446;DHT22;6795;51.232;3.764;2023-07-24T08:56:55;21.60;99.90
13446;DHT22;6795;51.232;3.764;2023-07-24T09:00:04;22.20;99.90
13446;DHT22;6795;51.232;3.764;2023-07-24T09:03:24;22.40;99.90
13446;DHT22;6795;51.232;3.764;2023-07-24T09:13:18;22.60;99.90
13446;DHT22;6795;51.232;3.764;2023-07-24T09:23:25;23.10;99.90
13446;DHT22;6795;51.232;3.764;2023-07-24T09:26:29;23.50;99.90
13446;DHT22;6795;51.232;3.764;2023-07-24T09:29:32;23.80;99.90
13446;DHT22;6795;51.232;3.764;2023-07-24T09:32:53;23.90;99.90
13446;DHT22;6795;51.232;3.764;2023-07-24T09:35:23;23.80;99.90
13446;DHT22;6795;51.232;3.764;2023-07-24T09:38:02;23.70;99.90
13446;DHT22;6795;51.232;3.764;2023-07-24T09:40:39;23.80;99.90
13446;DHT22;6795;51.232;3.764;2023-07-24T09:43:19;24.00;99.90
13446;DHT22;6795;51.232;3.764;2023-07-24T09:50:34;24.20;99.90
13446;DHT22;6795;51.232;3.764;2023-07-24T09:53:54;24.00;99.90
13446;DHT22;6795;51.232;3.764;2023-07-24T09:57:07;24.00;99.90
13446;DHT22;6795;51.232;3.764;2023-07-24T10:00:20;24.60;99.90
13446;DHT22;6795;51.232;3.764;2023-07-24T10:03:58;24.50;99.90
13446;DHT22;6795;51.232;3.764;2023-07-24T10:47:37;24.80;99.90
13446;DHT22;6795;51.232;3.764;2023-07-24T10:51:07;22.60;99.90
13446;DHT22;6795;51.232;3.764;2023-07-24T10:54:28;22.70;99.90
13446;DHT22;6795;51.232;3.764;2023-07-24T10:58:08;23.20;99.90
13446;DHT22;6795;51.232;3.764;2023-07-24T11:04:37;23.30;99.90
13446;DHT22;6795;51.232;3.764;2023-07-24T11:08:17;22.80;99.90
13446;DHT22;6795;51.232;3.764;2023-07-24T11:11:09;22.70;99.90
13446;DHT22;6795;51.232;3.764;2023-07-24T11:14:22;22.50;99.90
13446;DHT22;6795;51.232;3.764;2023-07-24T11:17:40;22.10;99.90
13446;DHT22;6795;51.232;3.764;2023-07-24T11:21:07;21.40;99.90
13446;DHT22;6795;51.232;3.764;2023-07-24T11:24:49;20.60;99.90
13446;DHT22;6795;51.232;3.764;2023-07-24T11:28:04;19.90;99.90
13446;DHT22;6795;51.232;3.764;2023-07-24T11:31:16;19.40;99.90
13446;DHT22;6795;51.232;3.764;2023-07-24T11:34:28;19.20;99.90
13446;DHT22;6795;51.232;3.764;2023-07-24T11:37:31;19.10;99.90
13446;DHT22;6795;51.232;3.764;2023-07-24T11:41:21;19.30;99.90
13446;DHT22;6795;51.232;3.764;2023-07-24T11:44:40;19.60;99.90
13446;DHT22;6795;51.232;3.764;2023-07-24T11:48:41;20.30;99.90
13446;DHT22;6795;51.232;3.764;2023-07-24T11:52:03;21.00;99.90
13446;DHT22;6795;51.232;3.764;2023-07-24T11:55:32;21.30;99.90
13446;DHT22;6795;51.232;3.764;2023-07-24T11:58:41;21.40;99.90
13446;DHT22;6795;51.232;3.764;2023-07-24T12:01:48;21.20;99.90
13446;DHT22;6795;51.232;3.764;2023-07-24T12:05:09;20.80;99.90
13446;DHT22;6795;51.232;3.764;2023-07-24T12:08:20;20.50;99.90
13446;DHT22;6795;51.232;3.764;2023-07-24T12:11:48;20.40;99.90
13446;DHT22;6795;51.232;3.764;2023-07-24T12:14:49;20.50;99.90
13446;DHT22;6795;51.232;3.764;2023-07-24T12:18:23;20.90;99.90
13446;DHT22;6795;51.232;3.764;2023-07-24T12:21:47;21.60;99.90
13446;DHT22;6795;51.232;3.764;2023-07-24T12:25:30;22.30;99.90
13446;DHT22;6795;51.232;3.764;2023-07-24T12:28:24;22.60;99.90
13446;DHT22;6795;51.232;3.764;2023-07-24T12:31:56;22.40;99.90
13446;DHT22;6795;51.232;3.764;2023-07-24T12:35:57;21.80;99.90
13446;DHT22;6795;51.232;3.764;2023-07-24T12:39:07;20.90;99.90
13446;DHT22;6795;51.232;3.764;2023-07-24T12:42:22;19.90;99.90
13446;DHT22;6795;51.232;3.764;2023-07-24T12:45:36;19.50;99.90
13446;DHT22;6795;51.232;3.764;2023-07-24T12:48:33;19.30;99.90
13446;DHT22;6795;51.232;3.764;2023-07-24T12:51:52;19.10;99.90
13446;DHT22;6795;51.232;3.764;2023-07-24T13:01:39;18.70;99.90
13446;DHT22;6795;51.232;3.764;2023-07-24T13:04:42;18.40;99.90
13446;DHT22;6795;51.232;3.764;2023-07-24T13:08:24;18.30;99.90
13446;DHT22;6795;51.232;3.764;2023-07-24T13:43:32;18.20;99.90
13446;DHT22;6795;51.232;3.764;2023-07-24T13:50:08;21.30;99.90
13446;DHT22;6795;51.232;3.764;2023-07-24T14:00:48;22.70;99.90
13446;DHT22;6795;51.232;3.764;2023-07-24T14:04:01;26.20;99.90
13446;DHT22;6795;51.232;3.764;2023-07-24T14:07:13;26.40;99.90
13446;DHT22;6795;51.232;3.764;2023-07-24T14:10:31;25.20;99.90
13446;DHT22;6795;51.232;3.764;2023-07-24T14:17:19;23.60;99.90
13446;DHT22;6795;51.232;3.764;2023-07-24T14:20:43;20.50;99.90
13446;DHT22;6795;51.232;3.764;2023-07-24T14:23:58;19.70;99.90
13446;DHT22;6795;51.232;3.764;2023-07-24T14:41:10;20.10;99.90
13446;DHT22;6795;51.232;3.764;2023-07-24T14:44:26;20.40;99.90
13446;DHT22;6795;51.232;3.764;2023-07-24T14:48:21;20.10;99.90
13446;DHT22;6795;51.232;3.764;2023-07-24T14:51:21;19.90;99.90
13446;DHT22;6795;51.232;3.764;2023-07-24T14:58:30;19.10;99.90
13446;DHT22;6795;51.232;3.764;2023-07-24T15:01:58;19.00;99.90
13446;DHT22;6795;51.232;3.764;2023-07-24T15:05:29;19.00;99.90
13446;DHT22;6795;51.232;3.764;2023-07-24T16:57:30;19.10;99.90
13446;DHT22;6795;51.232;3.764;2023-07-24T17:00:57;18.00;99.90
13446;DHT22;6795;51.232;3.764;2023-07-24T17:04:14;18.20;99.90
13446;DHT22;6795;51.232;3.764;2023-07-24T17:23:50;18.30;99.90
13446;DHT22;6795;51.232;3.764;2023-07-24T17:27:10;18.00;99.90
13446;DHT22;6795;51.232;3.764;2023-07-24T17:30:36;18.10;99.90
13446;DHT22;6795;51.232;3.764;2023-07-24T17:34:39;18.00;99.90
13446;DHT22;6795;51.232;3.764;2023-07-24T17:37:43;18.00;99.90
13446;DHT22;6795;51.232;3.764;2023-07-24T17:41:12;18.00;99.90
13446;DHT22;6795;51.232;3.764;2023-07-24T17:44:32;17.90;99.90
13446;DHT22;6795;51.232;3.764;2023-07-24T17:51:52;17.90;99.90
13446;DHT22;6795;51.232;3.764;2023-07-24T17:55:15;17.90;99.90
13446;DHT22;6795;51.232;3.764;2023-07-24T17:58:33;17.90;99.90
13446;DHT22;6795;51.232;3.764;2023-07-24T18:02:00;17.90;99.90
13446;DHT22;6795;51.232;3.764;2023-07-24T18:05:32;17.90;99.90
13446;DHT22;6795;51.232;3.764;2023-07-24T18:08:35;17.90;99.90
13446;DHT22;6795;51.232;3.764;2023-07-24T18:12:48;17.90;99.90
13446;DHT22;6795;51.232;3.764;2023-07-24T18:15:45;17.80;99.90
13446;DHT22;6795;51.232;3.764;2023-07-24T18:19:25;17.80;99.90
13446;DHT22;6795;51.232;3.764;2023-07-24T18:22:32;17.70;99.90
13446;DHT22;6795;51.232;3.764;2023-07-24T18:26:16;17.70;99.90
13446;DHT22;6795;51.232;3.764;2023-07-24T18:29:22;17.70;99.90
13446;DHT22;6795;51.232;3.764;2023-07-24T18:32:48;17.70;99.90
13446;DHT22;6795;51.232;3.764;2023-07-24T18:39:20;17.50;99.90
13446;DHT22;6795;51.232;3.764;2023-07-24T18:43:17;17.30;99.90
13446;DHT22;6795;51.232;3.764;2023-07-24T18:49:13;17.00;99.90
13446;DHT22;6795;51.232;3.764;2023-07-24T18:52:59;16.50;99.90
13446;DHT22;6795;51.232;3.764;2023-07-24T18:55:58;16.30;99.90
13446;DHT22;6795;51.232;3.764;2023-07-24T18:59:18;16.30;99.90
13446;DHT22;6795;51.232;3.764;2023-07-24T19:02:31;16.30;99.90
13446;DHT22;6795;51.232;3.764;2023-07-24T19:09:02;16.40;99.90
13446;DHT22;6795;51.232;3.764;2023-07-24T19:12:17;16.60;99.90
13446;DHT22;6795;51.232;3.764;2023-07-24T19:16:05;16.60;99.90
13446;DHT22;6795;51.232;3.764;2023-07-24T19:19:15;16.70;99.90
13446;DHT22;6795;51.232;3.764;2023-07-24T19:22:52;16.70;99.90
13446;DHT22;6795;51.232;3.764;2023-07-24T19:26:01;16.80;99.90
13446;DHT22;6795;51.232;3.764;2023-07-24T19:33:28;16.70;99.90
13446;DHT22;6795;51.232;3.764;2023-07-24T19:36:55;16.70;99.90
13446;DHT22;6795;51.232;3.764;2023-07-24T19:40:09;16.70;99.90
13446;DHT22;6795;51.232;3.764;2023-07-24T19:43:33;16.70;99.90
13446;DHT22;6795;51.232;3.764;2023-07-24T19:46:39;16.70;99.90
13446;DHT22;6795;51.232;3.764;2023-07-24T19:53:42;16.80;99.90
13446;DHT22;6795;51.232;3.764;2023-07-24T19:57:10;16.70;99.90
13446;DHT22;6795;51.232;3.764;2023-07-24T20:00:27;16.60;99.90
13446;DHT22;6795;51.232;3.764;2023-07-24T20:03:45;16.60;99.90
13446;DHT22;6795;51.232;3.764;2023-07-24T20:06:51;16.60;99.90
13446;DHT22;6795;51.232;3.764;2023-07-24T20:10:15;16.60;99.90
13446;DHT22;6795;51.232;3.764;2023-07-24T20:13:20;16.50;99.90
13446;DHT22;6795;51.232;3.764;2023-07-24T20:16:43;16.50;99.90
13446;DHT22;6795;51.232;3.764;2023-07-24T20:20:04;16.50;99.90
13446;DHT22;6795;51.232;3.764;2023-07-24T20:23:16;16.50;99.90
13446;DHT22;6795;51.232;3.764;2023-07-24T20:27:05;16.40;99.90
13446;DHT22;6795;51.232;3.764;2023-07-24T20:30:28;16.40;99.90
13446;DHT22;6795;51.232;3.764;2023-07-24T20:34:13;16.30;99.90
13446;DHT22;6795;51.232;3.764;2023-07-24T20:37:46;16.30;99.90
13446;DHT22;6795;51.232;3.764;2023-07-24T20:40:51;16.30;99.90
13446;DHT22;6795;51.232;3.764;2023-07-24T20:44:26;16.20;99.90
13446;DHT22;6795;51.232;3.764;2023-07-24T20:58:06;16.00;99.90
13446;DHT22;6795;51.232;3.764;2023-07-24T21:01:44;15.10;99.90
13446;DHT22;6795;51.232;3.764;2023-07-24T21:05:02;14.90;99.90
13446;DHT22;6795;51.232;3.764;2023-07-24T21:08:32;14.70;99.90
13446;DHT22;6795;51.232;3.764;2023-07-24T21:34:46;14.50;99.90
13446;DHT22;6795;51.232;3.764;2023-07-24T21:38:09;13.90;99.90
13446;DHT22;6795;51.232;3.764;2023-07-24T21:41:06;13.80;99.90
13446;DHT22;6795;51.232;3.764;2023-07-24T21:44:42;13.80;99.90
13446;DHT22;6795;51.232;3.764;2023-07-24T21:48:02;13.70;99.90
13446;DHT22;6795;51.232;3.764;2023-07-24T21:51:12;13.60;99.90
13446;DHT22;6795;51.232;3.764;2023-07-24T21:54:37;13.80;99.90
13446;DHT22;6795;51.232;3.764;2023-07-24T21:57:39;13.80;99.90
13446;DHT22;6795;51.232;3.764;2023-07-24T22:01:05;14.00;99.90
13446;DHT22;6795;51.232;3.764;2023-07-24T22:04:09;14.10;99.90
13446;DHT22;6795;51.232;3.764;2023-07-24T22:07:20;14.20;99.90
13446;DHT22;6795;51.232;3.764;2023-07-24T22:11:07;14.10;99.90
13446;DHT22;6795;51.232;3.764;2023-07-24T22:14:05;14.20;99.90
13446;DHT22;6795;51.232;3.764;2023-07-24T22:17:24;14.30;99.90
13446;DHT22;6795;51.232;3.764;2023-07-24T22:20:54;14.30;99.90
13446;DHT22;6795;51.232;3.764;2023-07-24T22:24:05;14.30;99.90
13446;DHT22;6795;51.232;3.764;2023-07-24T22:38:29;14.70;99.90
13446;DHT22;6795;51.232;3.764;2023-07-24T22:42:01;14.70;99.90
13446;DHT22;6795;51.232;3.764;2023-07-24T22:45:08;14.70;99.90
13446;DHT22;6795;51.232;3.764;2023-07-24T22:48:54;14.80;99.90
13446;DHT22;6795;51.232;3.764;2023-07-24T22:52:14;14.90;99.90
13446;DHT22;6795;51.232;3.764;2023-07-24T22:55:50;14.90;99.90
13446;DHT22;6795;51.232;3.764;2023-07-24T22:59:30;14.90;99.90
13446;DHT22;6795;51.232;3.764;2023-07-24T23:02:48;15.00;99.90
13446;DHT22;6795;51.232;3.764;2023-07-24T23:09:49;15.00;99.90
13446;DHT22;6795;51.232;3.764;2023-07-24T23:13:07;15.10;99.90
13446;DHT22;6795;51.232;3.764;2023-07-24T23:16:09;15.10;99.90
13446;DHT22;6795;51.232;3.764;2023-07-24T23:19:50;15.10;99.90
13446;DHT22;6795;51.232;3.764;2023-07-24T23:23:29;15.20;99.90
13446;DHT22;6795;51.232;3.764;2023-07-24T23:26:40;15.10;99.90
13446;DHT22;6795;51.232;3.764;2023-07-24T23:30:08;15.20;99.90
13446;DHT22;6795;51.232;3.764;2023-07-24T23:33:26;15.20;99.90
13446;DHT22;6795;51.232;3.764;2023-07-24T23:37:13;15.20;99.90
13446;DHT22;6795;51.232;3.764;2023-07-24T23:40:52;15.20;99.90
13446;DHT22;6795;51.232;3.764;2023-07-24T23:43:56;15.20;99.90
13446;DHT22;6795;51.232;3.764;2023-07-24T23:47:29;15.20;99.90
13446;DHT22;6795;51.232;3.764;2023-07-24T23:50:50;15.20;99.90
13446;DHT22;6795;51.232;3.764;2023-07-24T23:54:42;15.20;99.90
13446;DHT22;6795;51.232;3.764;2023-07-24T23:58:17;15.30;99.90
